Time;durP1;ratioP1;P1;durP2;ratioP2;P2;SDS_P1;SDS_P2;PMS_P1;PMS_P2;Temp;Humidity;BMP_temperature;BMP_pressure;BME280_temperature;BME280_humidity;BME280_pressure;Samples;Min_cycle;Max_cycle;Signal;HPM_P1;HPM_P2
2021/06/29 00:00:08;;;;;;;30.55;27.55;;;21.30;83.80;;;;;;4992111;28;20117;-87
2021/06/29 00:02:34;;;;;;;30.48;27.08;;;21.30;83.80;;;;;;4987233;28;20031;-88
2021/06/29 00:04:59;;;;;;;31.80;28.52;;;21.30;83.80;;;;;;4974285;28;20029;-87
2021/06/29 00:07:25;;;;;;;29.63;26.63;;;21.30;83.80;;;;;;4975050;28;20383;-88
2021/06/29 00:09:51;;;;;;;30.55;27.48;;;21.40;83.90;;;;;;4974336;28;20038;-87
2021/06/29 00:12:16;;;;;;;32.03;28.63;;;21.30;83.80;;;;;;4959334;28;20033;-87
2021/06/29 00:14:44;;;;;;;30.58;27.48;;;21.30;83.80;;;;;;4958243;28;20060;-86
2021/06/29 00:17:10;;;;;;;30.63;27.58;;;21.30;83.90;;;;;;4992327;28;20080;-87
2021/06/29 00:19:36;;;;;;;32.97;29.67;;;21.30;84.00;;;;;;4975142;28;20042;-86
2021/06/29 00:22:02;;;;;;;34.10;30.75;;;21.30;84.00;;;;;;4976036;28;20034;-87
2021/06/29 00:24:28;;;;;;;34.72;31.00;;;21.30;84.10;;;;;;4992833;28;20166;-87
2021/06/29 00:26:53;;;;;;;32.78;29.33;;;21.20;84.20;;;;;;4970740;28;20031;-87
2021/06/29 00:29:19;;;;;;;34.65;30.98;;;21.20;84.30;;;;;;4975443;28;20038;-87
2021/06/29 00:31:45;;;;;;;36.25;32.53;;;21.20;84.40;;;;;;4992526;28;20383;-86
2021/06/29 00:34:11;;;;;;;37.47;33.60;;;21.20;84.50;;;;;;4975231;28;20125;-89
2021/06/29 00:36:37;;;;;;;37.30;33.40;;;21.20;84.60;;;;;;4958117;28;20129;-87
2021/06/29 00:39:04;;;;;;;39.42;35.13;;;21.10;84.80;;;;;;4974839;28;20038;-87
2021/06/29 00:41:29;;;;;;;39.03;34.92;;;21.10;85.20;;;;;;4974276;28;20093;-87
2021/06/29 00:43:55;;;;;;;37.97;34.08;;;21.10;85.50;;;;;;4990686;28;20030;-83
2021/06/29 00:46:21;;;;;;;36.60;32.72;;;21.00;85.60;;;;;;4971864;28;20027;-85
2021/06/29 00:48:47;;;;;;;41.10;34.30;;;21.00;85.70;;;;;;4940728;28;20050;-81
2021/06/29 00:51:18;;;;;;;35.28;31.60;;;21.00;85.80;;;;;;4989884;28;20442;-82
2021/06/29 00:53:45;;;;;;;38.78;34.67;;;21.10;86.00;;;;;;4959562;28;20124;-82
2021/06/29 00:56:14;;;;;;;39.45;34.50;;;21.10;86.00;;;;;;4961967;28;20034;-82
2021/06/29 00:58:49;;;;;;;37.30;33.30;;;21.00;86.00;;;;;;4962608;28;20030;-81
2021/06/29 01:01:15;;;;;;;43.40;36.83;;;21.10;86.30;;;;;;4977743;28;20065;-81
2021/06/29 01:03:41;;;;;;;48.63;39.72;;;21.10;86.50;;;;;;4997753;28;20054;-81
2021/06/29 01:06:09;;;;;;;49.13;40.00;;;21.00;87.00;;;;;;4966645;28;20102;-81
2021/06/29 01:08:34;;;;;;;51.35;41.25;;;20.90;87.50;;;;;;4978642;28;20478;-83
2021/06/29 01:11:00;;;;;;;46.15;39.28;;;20.80;87.80;;;;;;4992407;28;20039;-81
2021/06/29 01:13:41;;;;;;;49.13;40.58;;;20.80;88.10;;;;;;4994600;28;20117;-81
2021/06/29 01:16:07;;;;;;;45.88;39.47;;;20.80;88.50;;;;;;4975348;28;20121;-82
2021/06/29 01:18:34;;;;;;;48.33;41.00;;;20.80;88.40;;;;;;4958183;28;20124;-80
2021/06/29 01:21:01;;;;;;;48.22;38.65;;;20.80;88.40;;;;;;4958734;28;20074;-80
2021/06/29 01:23:28;;;;;;;52.65;42.00;;;20.80;88.40;;;;;;4976062;28;20038;-80
2021/06/29 01:26:12;;;;;;;58.10;47.05;;;20.70;88.40;;;;;;4974603;28;20031;-80
2021/06/29 01:29:35;;;;;;;59.97;47.33;;;20.50;88.80;;;;;;4990314;28;20026;-80
2021/06/29 01:31:25;;;;;;;60.72;47.13;;;20.30;89.60;;;;;;4984287;28;20394;-80
2021/06/29 01:33:51;;;;;;;60.17;45.80;;;20.10;90.10;;;;;;4992112;28;20027;-82
2021/06/29 01:36:19;;;;;;;58.33;45.30;;;20.00;90.30;;;;;;4990692;28;20030;-82
2021/06/29 01:38:46;;;;;;;61.47;48.75;;;20.00;90.50;;;;;;4974372;28;20041;-82
2021/06/29 01:41:13;;;;;;;59.47;47.80;;;20.00;90.60;;;;;;4975004;28;20520;-82
2021/06/29 01:43:49;;;;;;;62.60;50.42;;;20.00;91.00;;;;;;4959513;28;20044;-82
2021/06/29 01:46:16;;;;;;;53.50;44.53;;;19.90;90.80;;;;;;4974959;28;20372;-82
2021/06/29 01:48:47;;;;;;;59.17;48.40;;;19.90;90.90;;;;;;4991763;28;20470;-82
2021/06/29 01:51:14;;;;;;;59.65;47.95;;;19.90;90.90;;;;;;4992498;28;20041;-84
2021/06/29 01:53:40;;;;;;;67.10;51.30;;;19.90;90.90;;;;;;4958484;28;20034;-83
2021/06/29 01:56:07;;;;;;;65.75;51.47;;;19.90;91.00;;;;;;4974135;28;20932;-83
2021/06/29 01:58:34;;;;;;;57.10;47.15;;;19.90;91.10;;;;;;4974626;28;20382;-83
2021/06/29 02:01:00;;;;;;;55.28;46.00;;;19.90;91.10;;;;;;4941407;28;20034;-82
2021/06/29 02:03:26;;;;;;;64.40;50.25;;;19.90;91.10;;;;;;4974076;28;20135;-83
2021/06/29 02:05:52;;;;;;;52.97;44.03;;;20.00;91.10;;;;;;4958625;28;20034;-83
2021/06/29 02:08:18;;;;;;;53.58;42.95;;;20.10;91.10;;;;;;4986723;28;20037;-83
2021/06/29 02:10:44;;;;;;;53.53;43.40;;;20.20;91.00;;;;;;4955847;28;20046;-83
2021/06/29 02:13:10;;;;;;;48.90;41.60;;;20.30;91.10;;;;;;4973210;28;20065;-83
2021/06/29 02:15:36;;;;;;;47.38;41.38;;;20.30;90.90;;;;;;4956579;28;20082;-83
2021/06/29 02:18:02;;;;;;;49.63;40.75;;;20.30;90.80;;;;;;4956780;28;20038;-83
2021/06/29 02:20:29;;;;;;;49.85;43.38;;;20.40;90.70;;;;;;4989908;28;20035;-83
2021/06/29 02:22:55;;;;;;;50.50;42.50;;;20.50;90.60;;;;;;4958172;28;20133;-83
2021/06/29 02:25:21;;;;;;;51.63;42.05;;;20.40;90.60;;;;;;4973866;28;20045;-84
2021/06/29 02:27:46;;;;;;;56.50;45.65;;;20.40;90.60;;;;;;4957645;28;20121;-84
2021/06/29 02:30:13;;;;;;;51.28;43.28;;;20.40;90.50;;;;;;4990781;28;20069;-84
2021/06/29 02:32:39;;;;;;;55.25;45.65;;;20.40;90.60;;;;;;4973590;28;20041;-85
2021/06/29 02:35:05;;;;;;;56.97;46.47;;;20.30;90.60;;;;;;4990381;28;20026;-85
2021/06/29 02:37:31;;;;;;;58.30;46.33;;;20.30;90.90;;;;;;4991575;28;20032;-84
2021/06/29 02:39:57;;;;;;;57.03;45.40;;;20.20;90.80;;;;;;4990432;28;20425;-84
2021/06/29 02:42:23;;;;;;;64.80;50.25;;;20.10;90.90;;;;;;4974100;28;20030;-84
2021/06/29 02:44:48;;;;;;;59.75;49.47;;;20.00;90.90;;;;;;4973833;28;20030;-84
2021/06/29 02:47:15;;;;;;;55.53;44.83;;;20.00;91.00;;;;;;4972875;28;20371;-84
2021/06/29 02:49:41;;;;;;;56.00;45.25;;;20.00;91.10;;;;;;4992252;28;20030;-83
2021/06/29 02:52:07;;;;;;;58.92;47.83;;;19.90;91.20;;;;;;4972856;28;20038;-83
2021/06/29 02:54:33;;;;;;;57.25;46.70;;;19.90;91.20;;;;;;4974575;28;20038;-83
2021/06/29 02:56:59;;;;;;;55.78;47.42;;;19.90;91.20;;;;;;4972167;28;20034;-83
2021/06/29 02:59:25;;;;;;;59.33;47.17;;;20.00;91.20;;;;;;4958592;28;20033;-83
2021/06/29 03:01:51;;;;;;;59.30;48.92;;;19.90;91.20;;;;;;4972330;28;20150;-83
2021/06/29 03:04:17;;;;;;;57.95;46.75;;;20.00;91.20;;;;;;4972318;28;20058;-82
2021/06/29 03:06:43;;;;;;;63.28;49.33;;;20.00;91.20;;;;;;4955340;28;20119;-83
2021/06/29 03:09:09;;;;;;;71.15;53.72;;;20.00;91.10;;;;;;4972585;28;20027;-82
2021/06/29 03:11:36;;;;;;;81.10;60.83;;;20.00;91.20;;;;;;4973600;28;20038;-82
2021/06/29 03:14:03;;;;;;;78.25;58.55;;;19.90;91.20;;;;;;4989092;28;20050;-82
2021/06/29 03:16:29;;;;;;;67.90;52.38;;;19.80;91.30;;;;;;4973226;28;20037;-83
2021/06/29 03:18:55;;;;;;;73.97;55.28;;;19.70;91.50;;;;;;4971999;28;20026;-82
2021/06/29 03:21:22;;;;;;;76.75;55.63;;;19.70;91.50;;;;;;4990822;28;20050;-82
2021/06/29 03:23:48;;;;;;;62.20;49.00;;;19.80;91.60;;;;;;4973042;28;20034;-83
2021/06/29 03:26:14;;;;;;;70.70;52.58;;;19.80;91.50;;;;;;4973183;28;20041;-82
2021/06/29 03:28:39;;;;;;;75.53;57.33;;;19.90;91.50;;;;;;4973696;28;20026;-82
2021/06/29 03:31:05;;;;;;;65.47;49.03;;;19.90;91.40;;;;;;4970867;28;20117;-82
2021/06/29 03:33:31;;;;;;;56.60;44.80;;;19.90;91.40;;;;;;4957331;28;20073;-83
2021/06/29 03:35:57;;;;;;;59.63;46.95;;;20.00;91.40;;;;;;4989862;28;20042;-82
2021/06/29 03:38:23;;;;;;;61.28;46.42;;;20.10;91.30;;;;;;4973377;28;20037;-83
2021/06/29 03:40:48;;;;;;;60.05;45.92;;;20.20;91.20;;;;;;4956171;28;20030;-81
2021/06/29 03:43:14;;;;;;;57.65;44.10;;;20.20;91.10;;;;;;4972742;28;20101;-82
2021/06/29 03:45:40;;;;;;;60.72;47.00;;;20.20;91.00;;;;;;4956189;28;20762;-81
2021/06/29 03:48:06;;;;;;;56.33;43.88;;;20.30;91.00;;;;;;4972352;28;20371;-81
2021/06/29 03:50:32;;;;;;;58.58;46.17;;;20.30;91.00;;;;;;4956479;28;20130;-81
2021/06/29 03:52:57;;;;;;;62.90;47.35;;;20.30;90.90;;;;;;4957664;28;20457;-81
2021/06/29 03:55:23;;;;;;;63.10;47.30;;;20.40;90.90;;;;;;4972148;28;20210;-81
2021/06/29 03:57:49;;;;;;;58.13;44.60;;;20.30;90.90;;;;;;4972883;28;20027;-81
2021/06/29 04:00:15;;;;;;;60.28;45.67;;;20.40;90.80;;;;;;4971370;28;20046;-81
2021/06/29 04:02:41;;;;;;;58.83;44.80;;;20.40;90.80;;;;;;4989980;28;20034;-81
2021/06/29 04:05:08;;;;;;;58.80;43.33;;;20.40;90.70;;;;;;4980898;28;20046;-81
2021/06/29 04:07:35;;;;;;;59.75;46.03;;;20.40;90.70;;;;;;4991231;28;20077;-80
2021/06/29 04:10:03;;;;;;;58.28;44.60;;;20.40;90.70;;;;;;4971516;28;20034;-81
2021/06/29 04:12:28;;;;;;;59.10;45.03;;;20.40;90.70;;;;;;4990151;28;20082;-81
2021/06/29 04:14:55;;;;;;;60.78;45.90;;;20.40;90.70;;;;;;4954666;28;20450;-81
2021/06/29 04:17:20;;;;;;;61.25;46.08;;;20.40;90.70;;;;;;4989773;28;20066;-81
2021/06/29 04:19:46;;;;;;;50.00;40.10;;;20.40;90.70;;;;;;4957690;28;20101;-80
2021/06/29 04:22:11;;;;;;;55.03;41.60;;;20.40;90.70;;;;;;4971475;28;20355;-77
2021/06/29 04:24:37;;;;;;;51.70;41.88;;;20.40;90.70;;;;;;4956087;28;20041;-79
2021/06/29 04:27:04;;;;;;;50.33;40.35;;;20.40;90.70;;;;;;4938792;28;20085;-80
2021/06/29 04:29:30;;;;;;;48.67;38.88;;;20.40;90.70;;;;;;4974461;28;20105;-81
2021/06/29 04:31:56;;;;;;;43.10;36.17;;;20.40;90.70;;;;;;4956990;28;20177;-80
2021/06/29 04:34:21;;;;;;;39.60;33.72;;;20.40;90.70;;;;;;4975899;28;20041;-81
2021/06/29 04:36:47;;;;;;;38.20;31.98;;;20.30;90.70;;;;;;4960105;28;20023;-81
2021/06/29 04:39:13;;;;;;;40.22;32.10;;;20.30;90.70;;;;;;4959433;28;20057;-81
2021/06/29 04:41:39;;;;;;;36.05;32.15;;;20.40;90.70;;;;;;4993587;28;20037;-82
2021/06/29 04:44:05;;;;;;;29.33;26.23;;;20.30;90.70;;;;;;4992748;28;20058;-82
2021/06/29 04:46:31;;;;;;;28.23;25.42;;;20.30;90.70;;;;;;4959672;28;20031;-82
2021/06/29 04:48:58;;;;;;;30.10;25.30;;;20.30;90.70;;;;;;4976383;28;20037;-82
2021/06/29 04:51:24;;;;;;;25.38;22.05;;;20.30;90.70;;;;;;4974676;28;20081;-82
2021/06/29 04:53:49;;;;;;;26.00;23.20;;;20.30;90.60;;;;;;4993568;28;20043;-83
2021/06/29 04:56:18;;;;;;;24.45;21.52;;;20.30;90.60;;;;;;4974377;28;20030;-81
2021/06/29 04:58:57;;;;;;;23.00;20.63;;;20.30;90.60;;;;;;4976320;28;20092;-82
2021/06/29 05:01:24;;;;;;;20.90;18.80;;;20.30;90.60;;;;;;4972987;28;20375;-83
2021/06/29 05:03:50;;;;;;;20.05;18.08;;;20.40;90.60;;;;;;4959663;28;20058;-83
2021/06/29 05:06:16;;;;;;;20.65;18.55;;;20.40;90.50;;;;;;4992433;28;20035;-83
2021/06/29 05:08:42;;;;;;;19.48;17.55;;;20.40;90.50;;;;;;4977241;28;20030;-83
2021/06/29 05:11:08;;;;;;;19.55;17.42;;;20.40;90.50;;;;;;4992487;28;20038;-84
2021/06/29 05:13:34;;;;;;;22.90;20.65;;;20.30;90.50;;;;;;4974034;28;20508;-82
2021/06/29 05:15:59;;;;;;;19.23;16.85;;;20.30;90.50;;;;;;4974433;28;20062;-83
2021/06/29 05:18:25;;;;;;;18.85;17.15;;;20.30;90.50;;;;;;4958569;28;20035;-83
2021/06/29 05:20:51;;;;;;;18.95;17.08;;;20.30;90.50;;;;;;4971043;28;20081;-85
2021/06/29 05:23:17;;;;;;;18.70;16.90;;;20.30;90.50;;;;;;4958649;28;20463;-83
2021/06/29 05:25:42;;;;;;;18.48;16.50;;;20.40;90.50;;;;;;4959197;28;20390;-85
2021/06/29 05:28:08;;;;;;;19.75;17.55;;;20.40;90.40;;;;;;4976614;28;20026;-84
2021/06/29 05:30:34;;;;;;;18.77;16.95;;;20.40;90.40;;;;;;4973481;28;20027;-84
2021/06/29 05:33:00;;;;;;;19.80;17.73;;;20.40;90.40;;;;;;4975405;28;20073;-85
2021/06/29 05:35:28;;;;;;;19.80;15.60;;;20.40;90.40;;;;;;4958802;28;20184;-84
2021/06/29 05:37:53;;;;;;;20.45;18.08;;;20.40;90.40;;;;;;4975065;28;20073;-84
2021/06/29 05:40:19;;;;;;;20.55;17.90;;;20.40;90.40;;;;;;4972888;28;20080;-84
2021/06/29 05:42:45;;;;;;;22.25;19.38;;;20.40;90.40;;;;;;4958835;28;20448;-84
2021/06/29 05:45:13;;;;;;;21.30;19.17;;;20.40;90.30;;;;;;4958221;28;20026;-84
2021/06/29 05:47:39;;;;;;;17.60;15.70;;;20.30;90.30;;;;;;4990881;28;20029;-83
2021/06/29 05:50:09;;;;;;;21.15;18.95;;;20.30;90.40;;;;;;4958864;28;20461;-83
2021/06/29 05:52:36;;;;;;;17.52;15.60;;;20.30;90.40;;;;;;4993726;28;20053;-86
2021/06/29 05:55:02;;;;;;;18.88;16.58;;;20.30;90.40;;;;;;4974375;28;20084;-85
2021/06/29 05:57:28;;;;;;;17.73;15.77;;;20.30;90.40;;;;;;4992212;28;20030;-85
2021/06/29 05:59:54;;;;;;;16.35;14.55;;;20.30;90.30;;;;;;4974349;28;20038;-82
2021/06/29 06:02:19;;;;;;;17.05;15.38;;;20.40;90.30;;;;;;4974174;28;20038;-82
2021/06/29 06:04:46;;;;;;;17.88;15.98;;;20.50;90.10;;;;;;4963555;28;20081;-82
2021/06/29 06:07:11;;;;;;;15.48;13.88;;;20.60;89.90;;;;;;4973220;28;20054;-83
2021/06/29 06:09:37;;;;;;;14.30;12.98;;;20.80;89.80;;;;;;4973678;28;20491;-83
2021/06/29 06:12:04;;;;;;;15.52;13.90;;;20.80;89.30;;;;;;4958168;28;20031;-83
2021/06/29 06:14:29;;;;;;;16.70;14.75;;;20.80;89.00;;;;;;4991363;28;20047;-84
2021/06/29 06:16:55;;;;;;;16.77;15.05;;;20.80;88.80;;;;;;4990495;28;20045;-82
2021/06/29 06:19:21;;;;;;;14.68;13.27;;;20.80;88.60;;;;;;4957627;28;20041;-82
2021/06/29 06:21:47;;;;;;;15.93;14.20;;;20.90;88.80;;;;;;4955400;28;20176;-83
2021/06/29 06:24:13;;;;;;;14.60;12.57;;;20.90;88.60;;;;;;4974801;28;20105;-83
2021/06/29 06:26:39;;;;;;;13.77;12.55;;;20.90;88.60;;;;;;4955499;28;20177;-82
2021/06/29 06:29:05;;;;;;;16.40;14.85;;;20.90;88.60;;;;;;4991299;28;20037;-83
2021/06/29 06:31:31;;;;;;;17.13;15.50;;;21.00;88.50;;;;;;4971619;28;20042;-83
2021/06/29 06:33:56;;;;;;;20.13;18.02;;;21.00;88.30;;;;;;4990391;28;20034;-82
2021/06/29 06:36:22;;;;;;;18.63;16.60;;;21.10;88.20;;;;;;4942301;28;20038;-83
2021/06/29 06:38:48;;;;;;;19.25;17.25;;;21.20;88.10;;;;;;4955541;28;20033;-82
2021/06/29 06:41:14;;;;;;;20.70;18.55;;;21.30;87.80;;;;;;4957173;28;20126;-82
2021/06/29 06:43:44;;;;;;;18.10;15.52;;;21.50;87.40;;;;;;4985137;28;20041;-84
2021/06/29 06:46:10;;;;;;;19.63;17.02;;;21.50;87.10;;;;;;4989906;28;20158;-83
2021/06/29 06:48:37;;;;;;;21.52;19.25;;;21.70;86.80;;;;;;4972328;28;20058;-83
2021/06/29 06:51:04;;;;;;;26.58;22.05;;;21.80;86.40;;;;;;4985633;28;20042;-83
2021/06/29 06:53:30;;;;;;;24.90;22.27;;;22.00;85.90;;;;;;5007303;28;20030;-82
2021/06/29 06:55:56;;;;;;;34.63;27.08;;;22.00;85.50;;;;;;4973704;28;20072;-83
2021/06/29 06:58:21;;;;;;;31.75;28.15;;;22.00;85.30;;;;;;4956486;28;20038;-84
2021/06/29 07:00:47;;;;;;;37.03;29.98;;;22.00;85.30;;;;;;4958231;28;20142;-86
2021/06/29 07:03:13;;;;;;;37.35;29.35;;;22.10;85.20;;;;;;4976066;28;20026;-86
2021/06/29 07:05:39;;;;;;;36.17;29.42;;;22.20;85.00;;;;;;4958133;28;20019;-86
2021/06/29 07:08:04;;;;;;;35.15;29.95;;;22.30;84.70;;;;;;4958219;28;20027;-87
2021/06/29 07:10:30;;;;;;;40.58;32.17;;;22.40;84.30;;;;;;4957693;28;20092;-86
2021/06/29 07:12:56;;;;;;;43.22;32.88;;;22.50;84.10;;;;;;4942981;28;20034;-87
2021/06/29 07:15:21;;;;;;;43.28;34.97;;;22.40;84.00;;;;;;4979635;28;20514;-89
2021/06/29 07:17:47;;;;;;;45.47;35.83;;;22.40;84.10;;;;;;4961631;28;20112;-88
2021/06/29 07:20:14;;;;;;;48.08;36.25;;;22.40;84.30;;;;;;4987270;28;20030;-88
2021/06/29 07:22:40;;;;;;;46.97;39.20;;;22.40;84.10;;;;;;4975644;28;20031;-87
2021/06/29 07:25:07;;;;;;;48.85;39.42;;;22.40;84.40;;;;;;4971840;28;20061;-89
2021/06/29 07:27:34;;;;;;;52.03;40.15;;;22.50;83.80;;;;;;4987955;28;20034;-87
2021/06/29 07:30:00;;;;;;;53.78;42.22;;;22.60;83.70;;;;;;4991626;28;20089;-88
2021/06/29 07:32:26;;;;;;;58.45;45.08;;;22.70;83.40;;;;;;4974836;28;20155;-89
2021/06/29 07:34:51;;;;;;;56.20;42.45;;;22.80;82.80;;;;;;4964395;28;20301;-88
2021/06/29 07:37:17;;;;;;;57.25;42.88;;;22.70;82.60;;;;;;4949297;28;20467;-90
2021/06/29 07:39:43;;;;;;;57.22;44.83;;;22.70;82.60;;;;;;4966008;28;20152;-92
2021/06/29 07:42:08;;;;;;;61.63;46.28;;;22.90;82.40;;;;;;4990051;28;20482;-91
2021/06/29 07:44:34;;;;;;;64.88;49.33;;;23.00;81.70;;;;;;4951209;28;20114;-87
2021/06/29 07:47:00;;;;;;;61.42;47.45;;;23.20;81.10;;;;;;4969276;28;20036;-91
2021/06/29 07:49:27;;;;;;;61.13;47.38;;;23.50;80.60;;;;;;4967518;28;20356;-90
2021/06/29 07:51:53;;;;;;;54.90;44.42;;;24.30;79.30;;;;;;5001819;28;20104;-90
2021/06/29 07:54:19;;;;;;;53.65;42.50;;;25.30;76.80;;;;;;4986576;28;20114;-89
2021/06/29 07:56:45;;;;;;;53.70;42.33;;;26.00;74.10;;;;;;4974642;28;20038;-88
2021/06/29 07:59:11;;;;;;;52.85;41.17;;;26.60;72.60;;;;;;4957641;28;20047;-87
2021/06/29 08:01:37;;;;;;;47.97;39.15;;;27.10;70.40;;;;;;4974034;28;20046;-87
2021/06/29 08:04:03;;;;;;;44.90;36.63;;;26.90;70.10;;;;;;4998930;28;20509;-86
2021/06/29 08:06:29;;;;;;;42.58;34.55;;;26.50;70.00;;;;;;5000186;28;20133;-86
2021/06/29 08:08:54;;;;;;;32.40;26.95;;;26.40;70.90;;;;;;4978395;28;20684;-85
2021/06/29 08:11:21;;;;;;;31.45;24.08;;;26.50;70.60;;;;;;4982309;28;20038;-84
2021/06/29 08:13:47;;;;;;;27.45;22.77;;;26.60;70.10;;;;;;4993502;28;20030;-86
2021/06/29 08:16:14;;;;;;;25.52;20.02;;;26.80;68.90;;;;;;4961884;28;20100;-85
2021/06/29 08:18:40;;;;;;;23.05;18.98;;;27.30;67.30;;;;;;4976966;28;20026;-86
2021/06/29 08:21:07;;;;;;;25.77;19.83;;;27.70;66.60;;;;;;4977211;28;20041;-86
2021/06/29 08:23:33;;;;;;;18.95;16.88;;;28.00;65.80;;;;;;4962201;28;20062;-87
2021/06/29 08:25:59;;;;;;;21.55;17.70;;;28.10;65.00;;;;;;4963329;28;20042;-81
2021/06/29 08:28:26;;;;;;;24.13;19.67;;;27.90;64.90;;;;;;4996624;28;20050;-83
2021/06/29 08:30:53;;;;;;;19.95;17.17;;;27.60;65.30;;;;;;4994845;28;20054;-81
2021/06/29 08:33:22;;;;;;;19.05;16.48;;;27.40;65.60;;;;;;4994674;28;20034;-82
2021/06/29 08:35:50;;;;;;;18.17;16.20;;;27.40;65.80;;;;;;4982779;28;20034;-82
2021/06/29 08:38:18;;;;;;;19.85;16.75;;;27.60;65.30;;;;;;4978947;28;20061;-84
2021/06/29 08:40:44;;;;;;;18.33;14.23;;;28.20;64.70;;;;;;4979765;28;20030;-85
2021/06/29 08:43:11;;;;;;;18.60;14.68;;;28.40;63.40;;;;;;4967212;28;20125;-84
2021/06/29 08:45:38;;;;;;;17.15;13.80;;;28.40;63.40;;;;;;4975466;28;20030;-83
2021/06/29 08:48:04;;;;;;;14.88;12.65;;;28.40;63.20;;;;;;4984361;28;20766;-83
2021/06/29 08:50:31;;;;;;;14.20;12.65;;;28.60;62.50;;;;;;5011544;28;20026;-85
2021/06/29 08:53:02;;;;;;;16.63;13.10;;;28.80;62.40;;;;;;4998342;28;20027;-83
2021/06/29 08:55:34;;;;;;;14.80;12.70;;;29.10;61.80;;;;;;4990808;28;20026;-86
2021/06/29 08:57:59;;;;;;;11.43;10.07;;;29.20;61.10;;;;;;4999516;28;20362;-83
2021/06/29 09:00:26;;;;;;;12.80;10.18;;;29.60;60.10;;;;;;4968449;28;20050;-83
2021/06/29 09:02:51;;;;;;;10.32;9.18;;;29.90;59.50;;;;;;4970854;28;20037;-87
2021/06/29 09:05:19;;;;;;;11.30;9.98;;;30.30;58.80;;;;;;4969023;28;20081;-84
2021/06/29 09:07:45;;;;;;;10.75;9.65;;;30.60;58.20;;;;;;4962397;28;20109;-83
2021/06/29 09:10:12;;;;;;;11.10;9.88;;;30.60;57.00;;;;;;4974224;28;20047;-82
2021/06/29 09:12:46;;;;;;;9.57;8.40;;;30.40;57.70;;;;;;4960839;28;20459;-84
2021/06/29 09:15:24;;;;;;;9.55;8.55;;;30.30;57.20;;;;;;4993833;28;20054;-83
2021/06/29 09:17:51;;;;;;;10.30;9.13;;;30.40;57.70;;;;;;4977035;28;20026;-85
2021/06/29 09:20:26;;;;;;;10.68;9.40;;;30.60;56.80;;;;;;4978796;28;20034;-86
2021/06/29 09:22:53;;;;;;;12.00;9.00;;;30.50;56.40;;;;;;4993560;28;20038;-84
2021/06/29 09:25:28;;;;;;;8.18;7.47;;;30.10;57.20;;;;;;4981968;28;20029;-83
2021/06/29 09:27:55;;;;;;;8.73;7.60;;;30.10;57.00;;;;;;4996047;28;20026;-86
2021/06/29 09:30:29;;;;;;;8.50;7.65;;;30.20;56.60;;;;;;4984583;28;20037;-84
2021/06/29 09:33:04;;;;;;;9.27;8.35;;;30.20;56.40;;;;;;4999172;28;20030;-87
2021/06/29 09:35:30;;;;;;;8.60;7.65;;;30.00;56.90;;;;;;4971655;28;20366;-84
2021/06/29 09:37:57;;;;;;;7.10;6.35;;;29.70;56.80;;;;;;4993013;28;20081;-84
2021/06/29 09:40:25;;;;;;;7.55;6.82;;;29.50;57.50;;;;;;4994195;28;20081;-84
2021/06/29 09:42:52;;;;;;;7.18;6.47;;;29.70;57.90;;;;;;4977445;28;20026;-85
2021/06/29 09:45:33;;;;;;;7.55;6.85;;;29.90;56.70;;;;;;4980804;28;20028;-84
2021/06/29 09:47:59;;;;;;;6.55;5.97;;;30.10;57.30;;;;;;4993313;28;20058;-85
2021/06/29 09:50:49;;;;;;;7.07;6.47;;;30.30;56.80;;;;;;4983690;28;20043;-85
2021/06/29 09:53:26;;;;;;;8.40;7.47;;;30.20;56.00;;;;;;4977608;28;20683;-85
2021/06/29 09:55:58;;;;;;;8.95;8.00;;;30.00;56.10;;;;;;4974742;28;20038;-83
2021/06/29 09:58:24;;;;;;;8.95;8.05;;;29.70;56.10;;;;;;4982149;28;20033;-84
2021/06/29 10:01:01;;;;;;;8.18;7.47;;;29.40;57.10;;;;;;4997975;28;20027;-82
2021/06/29 10:03:33;;;;;;;7.97;7.25;;;29.70;57.30;;;;;;4999512;28;20035;-82
2021/06/29 10:06:11;;;;;;;10.10;9.15;;;30.20;56.00;;;;;;4994198;28;20116;-87
2021/06/29 10:08:38;;;;;;;7.65;7.00;;;30.40;54.70;;;;;;4994922;28;20022;-83
2021/06/29 10:11:13;;;;;;;9.10;8.18;;;30.40;55.50;;;;;;5006524;28;20026;-81
2021/06/29 10:14:00;;;;;;;8.88;8.07;;;30.50;54.60;;;;;;4974374;28;20165;-81
2021/06/29 10:16:31;;;;;;;9.00;7.53;;;30.90;54.40;;;;;;4979216;28;20049;-81
2021/06/29 10:21:25;;;;;;;7.20;6.55;;;31.00;53.00;;;;;;4984449;28;20066;-82
2021/06/29 10:23:57;;;;;;;6.55;6.00;;;31.00;53.60;;;;;;4976982;28;20116;-82
2021/06/29 10:26:26;;;;;;;7.07;6.47;;;31.00;53.30;;;;;;4974295;28;20015;-82
2021/06/29 10:28:53;;;;;;;6.78;6.07;;;31.00;53.20;;;;;;4982551;28;20050;-82
2021/06/29 10:31:27;;;;;;;4.72;4.05;;;30.90;53.20;;;;;;4993804;28;20034;-83
2021/06/29 10:33:58;;;;;;;3.92;3.53;;;30.80;53.10;;;;;;4995758;28;20034;-88
2021/06/29 10:36:25;;;;;;;5.35;4.10;;;31.10;53.30;;;;;;4974157;28;20010;-87
2021/06/29 10:38:52;;;;;;;2.85;2.03;;;31.60;52.40;;;;;;4985438;28;20027;-84
2021/06/29 10:41:21;;;;;;;3.83;2.55;;;32.00;50.30;;;;;;4988831;28;20046;-85
2021/06/29 10:43:48;;;;;;;4.55;4.20;;;32.20;50.30;;;;;;4980670;28;20036;-85
2021/06/29 10:46:37;;;;;;;7.28;4.40;;;32.30;49.90;;;;;;5003857;28;20031;-86
2021/06/29 10:49:38;;;;;;;5.05;4.65;;;32.10;50.00;;;;;;4993948;28;20018;-88
2021/06/29 10:52:26;;;;;;;6.47;4.53;;;31.60;50.10;;;;;;4956277;28;20049;-89
2021/06/29 10:55:07;;;;;;;5.07;4.32;;;31.50;50.60;;;;;;4978099;28;20039;-82
2021/06/29 10:57:38;;;;;;;4.97;4.50;;;31.60;50.20;;;;;;4997308;28;20026;-83
2021/06/29 11:00:23;;;;;;;4.00;3.60;;;31.80;50.40;;;;;;4992890;28;20045;-84
2021/06/29 11:03:11;;;;;;;3.78;3.47;;;32.00;49.60;;;;;;5006363;28;20034;-83
2021/06/29 11:05:43;;;;;;;3.85;3.28;;;32.40;49.50;;;;;;4973093;28;20150;-85
2021/06/29 11:08:13;;;;;;;3.83;3.33;;;32.60;48.30;;;;;;4977012;28;20027;-91
2021/06/29 11:10:45;;;;;;;3.50;2.38;;;32.60;47.50;;;;;;4979525;28;20041;-83
2021/06/29 11:13:13;;;;;;;3.88;3.45;;;32.90;48.00;;;;;;5009943;28;20050;-90
2021/06/29 11:15:55;;;;;;;5.80;4.47;;;33.00;47.50;;;;;;4995868;28;20109;-84
2021/06/29 11:18:40;;;;;;;3.25;3.00;;;33.20;46.90;;;;;;4996962;28;20033;-87
2021/06/29 11:21:11;;;;;;;3.78;3.47;;;33.20;47.30;;;;;;5009434;28;20095;-87
2021/06/29 11:23:38;;;;;;;8.25;6.07;;;33.10;46.80;;;;;;5015000;28;20025;-88
2021/06/29 11:26:13;;;;;;;8.02;7.18;;;32.60;47.30;;;;;;4999621;28;20027;-89
2021/06/29 11:28:51;;;;;;;8.98;7.03;;;32.20;48.60;;;;;;4998370;28;20030;-84
2021/06/29 11:31:23;;;;;;;7.50;6.40;;;31.90;49.00;;;;;;5008512;28;20027;-84
2021/06/29 11:34:06;;;;;;;6.43;5.38;;;31.70;48.90;;;;;;5013275;28;20026;-86
2021/06/29 11:36:37;;;;;;;;;;;31.70;49.90;;;;;;4987594;28;20106;-84
2021/06/29 11:39:20;;;;;;;3.93;3.47;;;31.90;48.90;;;;;;4999414;28;19906;-85
2021/06/29 11:42:24;;;;;;;5.95;4.72;;;32.00;47.80;;;;;;4984793;28;20030;-86
2021/06/29 11:44:52;;;;;;;4.88;4.47;;;32.30;47.40;;;;;;4987219;28;20034;-87
2021/06/29 11:47:21;;;;;;;6.15;5.18;;;32.60;47.10;;;;;;5004361;28;20022;-86
2021/06/29 11:49:58;;;;;;;4.90;4.47;;;32.90;46.80;;;;;;4999464;28;20061;-83
2021/06/29 11:52:26;;;;;;;5.22;4.72;;;33.10;46.70;;;;;;5002001;28;20030;-83
2021/06/29 11:55:18;;;;;;;5.80;5.20;;;33.10;46.80;;;;;;5001681;28;20576;-84
2021/06/29 11:57:56;;;;;;;8.55;5.95;;;32.70;46.90;;;;;;4980542;28;20038;-83
2021/06/29 12:00:29;;;;;;;12.88;7.55;;;32.20;47.30;;;;;;4986397;28;20125;-84
2021/06/29 12:03:12;;;;;;;8.43;7.15;;;31.70;48.00;;;;;;4991194;28;20030;-83
2021/06/29 12:05:39;;;;;;;11.00;8.63;;;31.50;48.90;;;;;;5016838;28;20024;-82
2021/06/29 12:08:07;;;;;;;10.98;9.05;;;31.40;50.10;;;;;;4988117;28;20038;-83
2021/06/29 12:10:37;;;;;;;9.75;7.80;;;31.50;49.40;;;;;;4997870;28;20026;-83
2021/06/29 12:13:07;;;;;;;7.47;6.50;;;31.70;49.00;;;;;;4980048;28;20038;-81
2021/06/29 12:15:34;;;;;;;7.85;6.45;;;31.80;48.80;;;;;;4976557;28;20055;-84
2021/06/29 12:18:01;;;;;;;8.95;6.32;;;31.80;48.10;;;;;;4979249;28;20042;-81
2021/06/29 12:20:30;;;;;;;9.35;8.43;;;31.90;48.50;;;;;;4995486;28;20106;-84
2021/06/29 12:22:58;;;;;;;22.48;14.35;;;32.00;47.90;;;;;;4975144;28;20118;-83
2021/06/29 12:25:32;;;;;;;15.15;12.10;;;32.20;47.70;;;;;;4973574;28;20027;-83
2021/06/29 12:28:11;;;;;;;13.27;11.35;;;32.30;48.10;;;;;;4971374;28;20023;-81
2021/06/29 12:30:41;;;;;;;15.88;14.25;;;32.40;47.90;;;;;;4987980;28;20034;-84
2021/06/29 12:33:34;;;;;;;13.75;11.63;;;32.30;47.40;;;;;;4989859;28;20577;-80
2021/06/29 12:36:12;;;;;;;12.38;9.43;;;32.30;47.70;;;;;;4973474;28;20034;-81
2021/06/29 12:38:43;;;;;;;11.30;8.02;;;32.30;46.60;;;;;;4989773;28;20030;-82